Patterson, Louisiana
Current Conditions -  °F | °C
As of 11:35 AM on Friday 19 Dec 2014 (Local Time) from KPTN Reporting Station
Overcast Overcast  
Wind Chill: 13°   Ceiling: 700
Heat Index: 13°   Visibility: 10mi
Dew Point: 12°   Wind: 12mph
Humidity: 94%   Direction: 80°E
Pressure: 30.09"   Gusts: NA
Location:  29.69°N, 91.3°W
Report Text: KPTN 191735Z AUTO 08010KT 10SM OVC007 13/12 A3009 RMK AO1
Loading
Personal Weather Stations






























Interactive Weather Map New forecast layout! Learn more

10-Day Weather Forecast

Advertisements
Track Severe Weather on mobile